Schroeder, Texas
Current Conditions -  °F | °C
As of 6:15 AM on Saturday 20 Dec 2014 (Local Time) from KBEA Reporting Station
Overcast Overcast  
Wind Chill: 51°   Ceiling: 900
Heat Index: 51°   Visibility: 10mi
Dew Point: 49°   Wind: 7mph
Humidity: 94%   Direction: 20°NNE
Pressure: 30.19"   Gusts: NA
Location:  28.6563°N, 97.4287°W
Report Text: KBEA 201215Z AUTO 02006KT 10SM OVC009 10/09 A3019 RMK AO2 T01030093
Loading
Personal Weather Stations






























Interactive Weather Map New forecast layout! Learn more

10-Day Weather Forecast

Advertisements
Track Severe Weather on mobile